Time;durP1;ratioP1;P1;durP2;ratioP2;P2;SDS_P1;SDS_P2;PMS_P1;PMS_P2;Temp;Humidity;BMP_temperature;BMP_pressure;BME280_temperature;BME280_humidity;BME280_pressure;Samples;Min_cycle;Max_cycle;Signal;HPM_P1;HPM_P2
2023/12/27 00:01:29;;;;;;;7.70;2.73;;;;;;;4.49;92.84;101316.66;5016014;28;20199;-80
2023/12/27 00:03:59;;;;;;;5.73;1.90;;;;;;;4.47;92.82;101325.56;5009569;28;20237;-82
2023/12/27 00:06:25;;;;;;;7.40;1.80;;;;;;;4.44;93.00;101325.63;5013115;28;20235;-82
2023/12/27 00:08:52;;;;;;;6.70;1.93;;;;;;;4.43;93.02;101332.69;5014014;28;20221;-80
2023/12/27 00:11:19;;;;;;;6.90;1.37;;;;;;;4.41;93.28;101334.50;5016831;28;20613;-82
2023/12/27 00:13:45;;;;;;;7.97;1.57;;;;;;;4.41;93.30;101337.13;5016435;28;20233;-80
2023/12/27 00:16:19;;;;;;;4.50;1.70;;;;;;;4.40;93.30;101335.38;5015695;28;20211;-81
2023/12/27 00:18:49;;;;;;;5.40;1.50;;;;;;;4.38;93.83;101331.94;5008053;28;20232;-82
2023/12/27 00:21:16;;;;;;;6.70;1.80;;;;;;;4.36;93.88;101336.38;5012665;28;20215;-81
2023/12/27 00:23:42;;;;;;;5.73;1.20;;;;;;;4.32;94.20;101332.09;5009953;28;20214;-81
2023/12/27 00:26:09;;;;;;;8.47;1.57;;;;;;;4.28;94.18;101327.81;5006833;28;20227;-82
2023/12/27 00:28:35;;;;;;;9.77;1.97;;;;;;;4.28;94.33;101326.94;5009876;28;20199;-81
2023/12/27 00:31:02;;;;;;;6.20;1.50;;;;;;;4.26;94.61;101326.13;5003464;28;20219;-81
2023/12/27 00:33:30;;;;;;;11.10;1.50;;;;;;;4.23;94.32;101334.13;5011582;28;20226;-81
2023/12/27 00:35:56;;;;;;;9.83;1.60;;;;;;;4.21;94.83;101338.56;5010230;28;20201;-81
2023/12/27 00:38:23;;;;;;;8.53;1.50;;;;;;;4.20;94.72;101335.06;5010174;28;20205;-81
2023/12/27 00:40:49;;;;;;;6.57;1.30;;;;;;;4.18;94.99;101343.00;5012916;28;20203;-80
2023/12/27 00:43:16;;;;;;;9.80;1.50;;;;;;;4.19;94.92;101351.78;5009848;28;20290;-80
2023/12/27 00:45:42;;;;;;;8.37;1.60;;;;;;;4.17;95.03;101354.44;5009706;28;20235;-81
2023/12/27 00:48:09;;;;;;;7.07;1.73;;;;;;;4.17;95.65;101359.72;5010828;28;20207;-81
2023/12/27 00:50:36;;;;;;;4.23;1.23;;;;;;;4.13;95.06;101354.56;5007521;28;20234;-81
2023/12/27 00:53:12;;;;;;;7.63;1.67;;;;;;;4.13;95.75;101357.19;5010068;28;20591;-83
2023/12/27 00:55:38;;;;;;;5.77;1.20;;;;;;;4.10;95.72;101352.91;5009431;28;20715;-82
2023/12/27 00:58:05;;;;;;;6.63;1.90;;;;;;;4.10;95.48;101352.03;5010488;28;20214;-81
2023/12/27 01:00:34;;;;;;;7.40;2.20;;;;;;;4.08;95.67;101367.88;5011277;28;20584;-82
2023/12/27 01:03:00;;;;;;;6.23;1.10;;;;;;;4.09;95.85;101358.19;5008857;28;20223;-81
2023/12/27 01:05:27;;;;;;;7.83;1.47;;;;;;;4.07;95.59;101362.66;5011657;28;20238;-82
2023/12/27 01:07:55;;;;;;;3.63;1.30;;;;;;;4.05;96.01;101370.59;5003754;28;20202;-83
2023/12/27 01:10:29;;;;;;;8.73;1.53;;;;;;;4.02;95.99;101375.06;5006803;28;20683;-83
2023/12/27 01:12:57;;;;;;;7.23;1.47;;;;;;;4.01;96.42;101384.75;5008962;28;20289;-83
2023/12/27 01:15:24;;;;;;;7.60;1.30;;;;;;;3.99;96.75;101383.91;5007403;28;20207;-81
2023/12/27 01:17:52;;;;;;;4.23;1.00;;;;;;;3.97;96.49;101388.34;5011946;28;20667;-83
2023/12/27 01:20:19;;;;;;;7.37;1.40;;;;;;;3.96;96.79;101391.00;5009507;28;20250;-82
2023/12/27 01:22:48;;;;;;;5.27;1.30;;;;;;;3.96;96.58;101396.28;5012301;28;20776;-82
2023/12/27 01:25:16;;;;;;;6.27;1.30;;;;;;;3.93;97.04;101407.78;5011515;28;20218;-82
2023/12/27 01:27:44;;;;;;;6.87;1.47;;;;;;;3.90;96.84;101401.72;5011725;28;20695;-83
2023/12/27 01:30:11;;;;;;;4.27;1.10;;;;;;;3.89;97.17;101408.75;5009247;28;20218;-82
2023/12/27 01:32:38;;;;;;;7.57;1.50;;;;;;;3.88;97.38;101409.66;5011828;28;20222;-81
2023/12/27 01:35:05;;;;;;;7.87;1.63;;;;;;;3.87;97.43;101413.19;5012213;28;20206;-82
2023/12/27 01:37:32;;;;;;;5.40;1.30;;;;;;;3.83;97.50;101416.81;5011548;28;20207;-81
2023/12/27 01:39:59;;;;;;;7.13;1.37;;;;;;;3.83;97.69;101420.31;5007405;28;20302;-83
2023/12/27 01:42:27;;;;;;;10.00;1.50;;;;;;;3.81;97.48;101411.56;5011870;28;20565;-82
2023/12/27 01:44:53;;;;;;;9.03;2.27;;;;;;;3.82;98.04;101415.06;5001946;28;20214;-82
2023/12/27 01:47:22;;;;;;;5.43;1.17;;;;;;;3.85;98.11;101420.28;5009190;28;20250;-82
2023/12/27 01:49:49;;;;;;;4.87;1.97;;;;;;;3.81;97.85;101418.59;5007595;28;20211;-82
2023/12/27 01:52:15;;;;;;;4.83;1.67;;;;;;;3.79;98.04;101417.78;5009800;28;20231;-81
2023/12/27 01:54:42;;;;;;;7.83;1.50;;;;;;;3.77;97.84;101417.81;5005014;28;20203;-82
2023/12/27 01:57:08;;;;;;;14.63;2.20;;;;;;;3.76;97.99;101431.88;5009951;28;20207;-81
2023/12/27 01:59:36;;;;;;;6.13;1.37;;;;;;;3.75;98.04;101429.31;5010166;28;20207;-82
2023/12/27 02:02:06;;;;;;;7.77;1.87;;;;;;;3.74;98.79;101432.84;5008782;28;20574;-82
2023/12/27 02:04:32;;;;;;;10.40;2.17;;;;;;;3.73;98.78;101425.84;4999897;28;20238;-83
2023/12/27 02:06:59;;;;;;;2.50;1.00;;;;;;;3.70;98.88;101426.75;5009387;28;20229;-83
2023/12/27 02:09:26;;;;;;;6.90;1.37;;;;;;;3.69;98.78;101416.25;5010016;28;20206;-81
2023/12/27 02:11:52;;;;;;;4.73;1.20;;;;;;;3.67;99.02;101412.78;5009598;28;20206;-82
2023/12/27 02:14:19;;;;;;;8.17;2.00;;;;;;;3.69;98.65;101411.00;5006705;28;20211;-84
2023/12/27 02:16:47;;;;;;;8.10;1.70;;;;;;;3.66;99.15;101408.41;5008236;28;20202;-82
2023/12/27 02:19:20;;;;;;;4.13;1.73;;;;;;;3.62;98.81;101404.97;5007340;28;20642;-82
2023/12/27 02:21:49;;;;;;;6.37;1.83;;;;;;;3.63;99.15;101408.50;5003550;28;20253;-81
2023/12/27 02:24:19;;;;;;;5.57;1.40;;;;;;;3.62;99.37;101398.84;5002143;28;20227;-81
2023/12/27 02:26:48;;;;;;;7.30;1.97;;;;;;;3.60;99.30;101400.66;5004421;28;20675;-81
2023/12/27 02:29:17;;;;;;;5.87;1.27;;;;;;;3.56;99.16;101391.97;5007851;28;20238;-82
2023/12/27 02:31:43;;;;;;;8.37;1.57;;;;;;;3.54;99.50;101385.00;5007857;28;20203;-84
2023/12/27 02:34:10;;;;;;;6.27;1.40;;;;;;;3.51;99.74;101390.34;5010352;28;20235;-82
2023/12/27 02:36:37;;;;;;;8.00;1.30;;;;;;;3.51;99.52;101395.59;5013395;28;20213;-81
2023/12/27 02:39:04;;;;;;;4.73;1.23;;;;;;;3.47;99.93;101390.41;5012122;28;20214;-83
2023/12/27 02:41:30;;;;;;;7.50;1.30;;;;;;;3.44;100.00;101393.09;5008899;28;20203;-84
2023/12/27 02:43:58;;;;;;;10.80;2.17;;;;;;;3.42;99.82;101396.66;4993572;28;20225;-82
2023/12/27 02:46:25;;;;;;;6.87;1.67;;;;;;;3.40;100.00;101394.06;5007462;28;20698;-83
2023/12/27 02:48:51;;;;;;;5.50;1.23;;;;;;;3.38;100.00;101392.38;5004235;28;20294;-83
2023/12/27 02:51:18;;;;;;;5.47;1.37;;;;;;;3.37;100.00;101395.91;5012437;28;20520;-83
2023/12/27 02:53:45;;;;;;;8.83;1.73;;;;;;;3.39;100.00;101387.09;5013470;28;20233;-82
2023/12/27 02:56:11;;;;;;;7.07;1.73;;;;;;;3.37;100.00;101385.38;5011899;28;20214;-82
2023/12/27 02:58:39;;;;;;;6.40;1.17;;;;;;;3.34;100.00;101393.34;4997530;28;20206;-82
2023/12/27 03:01:07;;;;;;;4.53;1.13;;;;;;;3.30;100.00;101399.56;5012449;28;20239;-82
2023/12/27 03:03:34;;;;;;;4.17;1.27;;;;;;;3.26;100.00;101400.53;5012895;28;20276;-81
2023/12/27 03:06:00;;;;;;;6.83;1.50;;;;;;;3.24;100.00;101391.78;5013188;28;20883;-82
2023/12/27 03:08:27;;;;;;;6.33;1.20;;;;;;;3.23;100.00;101393.56;5013110;28;20234;-83
2023/12/27 03:10:55;;;;;;;3.77;1.23;;;;;;;3.19;100.00;101391.91;5016282;28;20570;-83
2023/12/27 03:13:22;;;;;;;9.70;1.70;;;;;;;3.18;100.00;101389.31;5017329;28;20638;-82
2023/12/27 03:15:49;;;;;;;4.80;1.10;;;;;;;3.14;100.00;101391.13;5017181;28;20205;-81
2023/12/27 03:18:17;;;;;;;6.47;1.20;;;;;;;3.14;100.00;101388.50;5016824;28;20246;-81
2023/12/27 03:20:43;;;;;;;4.10;1.13;;;;;;;3.11;100.00;101386.78;5015026;28;20199;-82
2023/12/27 03:23:10;;;;;;;4.87;1.20;;;;;;;3.10;100.00;101387.69;5013203;28;20235;-81
2023/12/27 03:25:36;;;;;;;5.00;1.10;;;;;;;3.09;100.00;101385.09;5016368;28;20218;-83
2023/12/27 03:28:03;;;;;;;7.60;1.70;;;;;;;3.08;100.00;101384.22;5016371;28;20277;-82
2023/12/27 03:30:31;;;;;;;5.97;1.10;;;;;;;3.06;100.00;101390.41;5016080;28;20214;-82
2023/12/27 03:32:58;;;;;;;9.80;2.20;;;;;;;3.04;100.00;101376.44;5017156;28;20371;-82
2023/12/27 03:35:26;;;;;;;10.20;1.30;;;;;;;3.02;100.00;101380.88;5017084;28;20205;-81
2023/12/27 03:37:55;;;;;;;5.57;1.53;;;;;;;2.99;100.00;101373.91;5017809;28;20286;-82
2023/12/27 03:40:24;;;;;;;6.37;1.30;;;;;;;2.99;100.00;101378.31;5016916;28;20208;-82
2023/12/27 03:42:50;;;;;;;5.60;1.57;;;;;;;2.99;100.00;101378.31;5017619;28;20231;-83
2023/12/27 03:45:17;;;;;;;6.70;1.63;;;;;;;2.97;100.00;101374.84;5016602;28;20814;-84
2023/12/27 03:47:44;;;;;;;13.63;1.93;;;;;;;2.95;100.00;101366.97;5017404;28;20223;-81
2023/12/27 03:50:11;;;;;;;5.50;1.63;;;;;;;2.95;100.00;101376.63;5013854;28;20207;-84
2023/12/27 03:52:39;;;;;;;5.53;1.13;;;;;;;2.95;100.00;101368.72;5006236;28;20231;-83
2023/12/27 03:55:09;;;;;;;7.63;1.77;;;;;;;2.94;100.00;101380.16;5018224;28;20210;-83
2023/12/27 03:57:35;;;;;;;5.60;1.10;;;;;;;2.93;100.00;101373.16;5019178;28;20714;-84
2023/12/27 04:00:02;;;;;;;5.13;1.60;;;;;;;2.92;100.00;101385.44;5018352;28;20217;-84
2023/12/27 04:02:28;;;;;;;5.70;1.10;;;;;;;2.92;100.00;101374.06;5017010;28;20626;-82
2023/12/27 04:04:55;;;;;;;10.30;1.67;;;;;;;2.89;100.00;101372.34;5017497;28;20215;-83
2023/12/27 04:07:21;;;;;;;6.60;1.00;;;;;;;2.88;100.00;101362.72;5016846;28;20248;-83
2023/12/27 04:09:49;;;;;;;7.77;1.50;;;;;;;2.87;100.00;101373.25;5017223;28;20215;-84
2023/12/27 04:12:16;;;;;;;7.93;1.40;;;;;;;2.85;100.00;101369.81;5016949;28;20568;-82
2023/12/27 04:14:43;;;;;;;6.73;1.80;;;;;;;2.84;100.00;101373.34;5016767;28;20270;-82
2023/12/27 04:17:09;;;;;;;6.80;1.20;;;;;;;2.82;100.00;101370.75;5016640;28;20210;-83
2023/12/27 04:19:36;;;;;;;6.27;1.30;;;;;;;2.82;100.00;101369.88;5017058;28;20226;-83
2023/12/27 04:22:03;;;;;;;8.27;1.30;;;;;;;2.81;100.00;101360.25;5009626;28;20212;-81
2023/12/27 04:24:29;;;;;;;5.70;1.20;;;;;;;2.78;100.00;101367.31;4995652;28;20200;-81
2023/12/27 04:26:57;;;;;;;11.33;1.30;;;;;;;2.77;100.00;101360.31;4996800;28;20316;-83
2023/12/27 04:29:24;;;;;;;5.70;1.33;;;;;;;2.77;100.00;101357.69;4997179;28;20219;-82
2023/12/27 04:31:50;;;;;;;4.97;1.00;;;;;;;2.75;100.00;101353.34;4996694;28;20563;-82
2023/12/27 04:34:17;;;;;;;9.27;1.47;;;;;;;2.74;100.00;101367.41;4996175;28;20239;-83
2023/12/27 04:36:43;;;;;;;4.23;1.63;;;;;;;2.73;100.00;101379.69;5002342;28;20210;-82
2023/12/27 04:39:10;;;;;;;10.23;2.47;;;;;;;2.70;100.00;101377.09;5016778;28;20546;-83
2023/12/27 04:41:36;;;;;;;7.33;1.27;;;;;;;2.70;100.00;101379.72;5016236;28;20209;-84
2023/12/27 04:44:04;;;;;;;6.23;1.10;;;;;;;2.67;100.00;101371.94;5016243;28;20727;-82
2023/12/27 04:46:31;;;;;;;5.87;1.60;;;;;;;2.65;100.00;101378.97;5014920;28;20211;-81
2023/12/27 04:48:57;;;;;;;5.27;1.10;;;;;;;2.61;100.00;101379.06;5015756;28;20219;-81
2023/12/27 04:51:24;;;;;;;7.40;1.10;;;;;;;2.57;100.00;101391.38;5014553;28;20205;-82
2023/12/27 04:53:52;;;;;;;5.73;1.50;;;;;;;2.52;100.00;101387.97;5014797;28;20235;-83
2023/12/27 04:56:19;;;;;;;6.70;1.90;;;;;;;2.50;100.00;101402.06;5015755;28;20219;-83
2023/12/27 04:58:46;;;;;;;3.70;1.43;;;;;;;2.45;100.00;101404.78;5014969;28;20701;-82
2023/12/27 05:01:16;;;;;;;6.10;1.27;;;;;;;2.45;100.00;101410.03;5015719;28;20214;-83
2023/12/27 05:03:45;;;;;;;7.73;1.30;;;;;;;2.40;100.00;101403.97;5015137;28;20231;-83
2023/12/27 05:06:12;;;;;;;4.47;1.03;;;;;;;2.38;100.00;101400.50;5015751;28;21005;-82
2023/12/27 05:08:39;;;;;;;7.10;1.33;;;;;;;2.36;100.00;101407.53;5014614;28;20591;-83
2023/12/27 05:11:11;;;;;;;8.17;1.40;;;;;;;2.33;100.00;101412.88;5014510;28;20207;-81
2023/12/27 05:13:37;;;;;;;6.77;1.40;;;;;;;2.32;100.00;101416.41;5015877;28;20225;-82
2023/12/27 05:16:09;;;;;;;6.07;1.37;;;;;;;2.31;100.00;101419.94;5015212;28;20236;-82
2023/12/27 05:18:37;;;;;;;8.17;2.43;;;;;;;2.30;100.00;101428.69;5014272;28;20743;-82
2023/12/27 05:21:04;;;;;;;7.40;2.13;;;;;;;2.26;100.00;101413.88;5014646;28;20209;-82
2023/12/27 05:23:31;;;;;;;7.60;1.83;;;;;;;2.26;100.00;101422.63;5014287;28;20253;-83
2023/12/27 05:25:58;;;;;;;9.83;3.87;;;;;;;2.29;100.00;101421.72;5013669;28;20221;-83
2023/12/27 05:28:25;;;;;;;8.63;2.40;;;;;;;2.27;100.00;101432.25;5014569;28;20322;-84
2023/12/27 05:30:51;;;;;;;4.53;1.77;;;;;;;2.26;100.00;101434.91;5014206;28;20215;-83
2023/12/27 05:33:18;;;;;;;6.67;1.73;;;;;;;2.24;100.00;101434.91;5014491;28;20230;-83
2023/12/27 05:35:46;;;;;;;8.13;2.17;;;;;;;2.25;100.00;101438.41;5010422;28;20657;-83
2023/12/27 05:38:12;;;;;;;4.50;1.23;;;;;;;2.20;100.00;101434.97;4994182;28;20211;-82
2023/12/27 05:40:39;;;;;;;3.73;1.30;;;;;;;2.18;100.00;101426.25;4994055;28;20210;-82
2023/12/27 05:43:05;;;;;;;7.57;1.40;;;;;;;2.13;100.00;101421.09;5008212;28;20225;-82
2023/12/27 05:45:34;;;;;;;6.07;1.30;;;;;;;2.11;100.00;101404.50;5013477;28;20203;-82
2023/12/27 05:48:01;;;;;;;7.13;1.37;;;;;;;2.10;100.00;101405.38;5014135;28;20230;-82
2023/12/27 05:50:28;;;;;;;12.60;1.70;;;;;;;2.08;100.00;101408.03;5014276;28;20203;-81
2023/12/27 05:52:58;;;;;;;7.33;2.37;;;;;;;2.02;100.00;101408.13;5015123;28;20249;-82
2023/12/27 05:55:25;;;;;;;7.23;1.63;;;;;;;2.02;100.00;101415.13;5015877;28;20250;-81
2023/12/27 05:57:51;;;;;;;8.10;3.70;;;;;;;2.00;100.00;101402.00;5015431;28;20192;-83
2023/12/27 06:00:18;;;;;;;10.57;2.10;;;;;;;2.01;100.00;101403.75;5014436;28;20203;-82
2023/12/27 06:02:45;;;;;;;4.90;1.23;;;;;;;2.05;100.00;101405.44;5005101;28;20234;-81
2023/12/27 06:05:11;;;;;;;5.67;1.40;;;;;;;2.05;100.00;101396.69;5010063;28;20579;-83
2023/12/27 06:07:38;;;;;;;7.80;1.80;;;;;;;2.01;100.00;101398.50;5008568;28;20743;-82
2023/12/27 06:10:07;;;;;;;3.67;1.33;;;;;;;2.01;100.00;101393.25;4999459;28;20207;-82
2023/12/27 06:12:34;;;;;;;6.60;1.00;;;;;;;2.00;100.00;101393.28;5004170;28;20663;-82
2023/12/27 06:15:01;;;;;;;5.97;1.53;;;;;;;2.01;100.00;101390.63;5014586;28;20207;-81
2023/12/27 06:17:28;;;;;;;3.97;1.20;;;;;;;2.05;100.00;101394.94;5013056;28;20571;-81
2023/12/27 06:19:55;;;;;;;3.83;1.10;;;;;;;2.06;100.00;101396.69;5013479;28;20198;-83
2023/12/27 06:22:21;;;;;;;6.00;1.43;;;;;;;2.09;100.00;101395.75;5013232;28;20227;-81
2023/12/27 06:24:48;;;;;;;5.13;1.90;;;;;;;2.11;100.00;101401.00;5013019;28;20207;-83
2023/12/27 06:27:16;;;;;;;5.97;1.40;;;;;;;2.12;100.00;101397.47;5013597;28;20202;-83
2023/12/27 06:29:43;;;;;;;4.03;1.20;;;;;;;2.15;100.00;101403.53;5013021;28;20233;-83
2023/12/27 06:32:10;;;;;;;7.80;1.20;;;;;;;2.16;100.00;101397.38;5012996;28;20206;-82
2023/12/27 06:34:36;;;;;;;5.53;1.37;;;;;;;2.11;100.00;101395.72;5014473;28;20213;-82
2023/12/27 06:37:03;;;;;;;8.40;2.67;;;;;;;2.10;100.00;101397.50;5015392;28;20206;-81
2023/12/27 06:39:30;;;;;;;5.90;1.30;;;;;;;2.07;100.00;101389.66;5011713;28;20586;-81
2023/12/27 06:41:56;;;;;;;7.30;1.53;;;;;;;2.06;100.00;101390.56;5016532;28;20203;-82
2023/12/27 06:44:24;;;;;;;7.97;1.60;;;;;;;2.03;100.00;101388.84;5014184;28;20738;-82
2023/12/27 06:46:51;;;;;;;5.43;1.73;;;;;;;2.04;100.00;101397.59;5012886;28;20206;-83
2023/12/27 06:49:17;;;;;;;6.93;1.80;;;;;;;2.05;100.00;101399.31;5014516;28;20231;-82
2023/12/27 06:51:44;;;;;;;7.47;1.50;;;;;;;2.02;100.00;101408.13;5014348;28;20290;-81
2023/12/27 06:54:10;;;;;;;8.60;1.67;;;;;;;2.00;100.00;101399.38;5011489;28;20713;-82
2023/12/27 06:56:39;;;;;;;6.17;1.87;;;;;;;2.00;100.00;101399.38;5007796;28;20231;-83
2023/12/27 06:59:08;;;;;;;7.00;1.33;;;;;;;2.00;100.00;101396.75;5010028;28;20736;-82
2023/12/27 07:01:36;;;;;;;6.53;1.40;;;;;;;2.02;100.00;101397.59;5012647;28;20207;-82
2023/12/27 07:04:04;;;;;;;9.63;1.60;;;;;;;2.02;100.00;101392.34;5009423;28;20223;-82
2023/12/27 07:06:32;;;;;;;6.77;2.10;;;;;;;2.07;100.00;101395.78;5013109;28;20219;-82
2023/12/27 07:08:59;;;;;;;7.80;1.47;;;;;;;2.07;100.00;101395.78;5008614;28;20746;-82
2023/12/27 07:11:26;;;;;;;5.20;1.60;;;;;;;2.09;100.00;101390.50;5013887;28;20272;-81
2023/12/27 07:13:52;;;;;;;4.80;1.50;;;;;;;2.09;100.00;101383.50;5010447;28;20234;-82
2023/12/27 07:16:19;;;;;;;5.73;1.50;;;;;;;2.10;100.00;101392.25;5014439;28;20211;-82
2023/12/27 07:18:46;;;;;;;8.60;1.80;;;;;;;2.13;100.00;101391.31;5010753;28;20198;-82
2023/12/27 07:21:13;;;;;;;5.00;1.93;;;;;;;2.15;100.00;101402.69;5012929;28;20218;-82
2023/12/27 07:23:40;;;;;;;6.87;1.33;;;;;;;2.15;100.00;101395.63;5013366;28;20225;-81
2023/12/27 07:26:11;;;;;;;2.87;1.40;;;;;;;2.18;100.00;101394.72;5011753;28;20213;-82
2023/12/27 07:28:38;;;;;;;5.87;1.33;;;;;;;2.23;100.00;101395.53;5012017;28;20306;-83
2023/12/27 07:31:04;;;;;;;6.37;1.93;;;;;;;2.24;100.00;101392.00;5010149;28;20215;-83
2023/12/27 07:33:31;;;;;;;5.93;1.43;;;;;;;2.22;100.00;101383.28;5004561;28;20231;-83
2023/12/27 07:35:59;;;;;;;3.00;1.40;;;;;;;2.20;100.00;101390.31;5014293;28;20266;-83
2023/12/27 07:38:26;;;;;;;4.30;1.43;;;;;;;2.20;100.00;101385.91;5011215;28;20207;-83
2023/12/27 07:41:00;;;;;;;7.47;2.73;;;;;;;2.19;100.00;101389.44;5012187;28;20795;-82
2023/12/27 07:43:27;;;;;;;14.83;5.00;;;;;;;2.21;100.00;101386.78;5003711;28;20247;-83
2023/12/27 07:45:53;;;;;;;8.27;3.97;;;;;;;2.22;100.00;101393.78;5010195;28;20690;-82
2023/12/27 07:48:22;;;;;;;7.23;2.77;;;;;;;2.21;100.00;101392.91;5010191;28;20691;-82
2023/12/27 07:50:50;;;;;;;7.47;2.30;;;;;;;2.26;100.00;101395.47;5009506;28;20258;-83
2023/12/27 07:53:17;;;;;;;5.73;1.67;;;;;;;2.27;100.00;101398.06;5009007;28;20304;-83
2023/12/27 07:55:44;;;;;;;8.70;1.53;;;;;;;2.28;100.00;101401.56;5013784;28;20206;-82
2023/12/27 07:58:11;;;;;;;7.60;1.70;;;;;;;2.29;100.00;101398.06;5014422;28;20206;-82
2023/12/27 08:00:37;;;;;;;4.47;1.47;;;;;;;2.28;100.00;101404.19;5007425;28;20659;-81
2023/12/27 08:03:08;;;;;;;6.13;2.17;;;;;;;2.28;100.00;101394.56;5008310;28;20233;-83
2023/12/27 08:05:34;;;;;;;9.53;1.40;;;;;;;2.31;100.00;101394.50;5004742;28;20246;-83
2023/12/27 08:08:02;;;;;;;5.67;1.40;;;;;;;2.31;100.00;101386.63;5008287;28;20230;-82
2023/12/27 08:10:30;;;;;;;7.93;1.87;;;;;;;2.33;100.00;101386.59;5011213;28;20291;-82
2023/12/27 08:12:58;;;;;;;4.93;1.57;;;;;;;2.33;100.00;101386.59;5009009;28;20236;-82
2023/12/27 08:15:24;;;;;;;5.13;1.30;;;;;;;2.31;100.00;101393.63;5004790;28;20715;-82
2023/12/27 08:17:51;;;;;;;7.13;1.50;;;;;;;2.31;100.00;101388.38;5009392;28;20215;-82
2023/12/27 08:20:19;;;;;;;10.03;1.50;;;;;;;2.36;100.00;101382.13;5009895;28;20215;-82
2023/12/27 08:22:45;;;;;;;6.67;1.60;;;;;;;2.38;100.00;101376.84;5020404;28;20245;-80
2023/12/27 08:25:13;;;;;;;7.17;1.87;;;;;;;2.39;100.00;101375.94;5022988;28;20278;-80
2023/12/27 08:27:42;;;;;;;4.57;1.13;;;;;;;2.42;100.00;101378.53;5028002;28;20217;-81
2023/12/27 08:30:09;;;;;;;6.90;2.23;;;;;;;2.42;100.00;101379.41;5023030;28;20278;-80
2023/12/27 08:32:35;;;;;;;4.70;1.30;;;;;;;2.47;100.00;101371.44;5028417;28;20242;-81
2023/12/27 08:35:02;;;;;;;7.53;2.77;;;;;;;2.48;100.00;101369.66;5025707;28;20226;-81
2023/12/27 08:37:32;;;;;;;3.23;1.40;;;;;;;2.52;100.00;101366.94;5019254;28;20255;-80
2023/12/27 08:39:59;;;;;;;9.37;1.70;;;;;;;2.50;100.00;101366.13;5026067;28;20206;-80
2023/12/27 08:42:26;;;;;;;8.17;1.83;;;;;;;2.55;100.00;101366.00;5015196;28;20258;-81
2023/12/27 08:44:53;;;;;;;5.53;1.80;;;;;;;2.58;100.00;101361.56;5013652;28;20293;-79
2023/12/27 08:47:22;;;;;;;6.37;1.87;;;;;;;2.62;100.00;101360.63;5012678;28;20218;-81
2023/12/27 08:49:48;;;;;;;8.63;2.13;;;;;;;2.64;100.00;101356.19;5008651;28;20321;-80
2023/12/27 08:52:15;;;;;;;8.80;2.33;;;;;;;2.68;100.00;101338.59;5009413;28;20207;-81
2023/12/27 08:54:42;;;;;;;5.80;2.03;;;;;;;2.72;100.00;101340.25;5017392;28;20297;-81
2023/12/27 08:57:08;;;;;;;6.47;2.17;;;;;;;2.76;100.00;101344.56;5010469;28;20207;-80
2023/12/27 08:59:35;;;;;;;7.67;2.10;;;;;;;2.76;100.00;101340.16;5014341;28;20199;-80
2023/12/27 09:02:03;;;;;;;8.20;2.63;;;;;;;2.77;100.00;101326.13;5007443;28;20583;-79
2023/12/27 09:04:30;;;;;;;3.70;1.90;;;;;;;2.81;100.00;101336.59;5013796;28;20268;-79
2023/12/27 09:06:57;;;;;;;5.43;3.23;;;;;;;2.85;100.00;101328.59;5007335;28;20233;-79
2023/12/27 09:09:23;;;;;;;6.37;2.23;;;;;;;2.88;100.00;101325.00;5009115;28;20223;-79
2023/12/27 09:11:50;;;;;;;7.33;1.90;;;;;;;2.91;100.00;101317.94;5015583;28;20254;-80
2023/12/27 09:14:16;;;;;;;6.00;1.80;;;;;;;2.96;100.00;101315.22;5015485;28;20223;-80
2023/12/27 09:16:44;;;;;;;7.90;1.73;;;;;;;3.01;100.00;101313.34;5014091;28;20199;-80
2023/12/27 09:19:12;;;;;;;6.00;2.70;;;;;;;3.04;100.00;101298.38;5004450;28;20220;-79
2023/12/27 09:21:43;;;;;;;6.90;1.93;;;;;;;3.09;100.00;101303.50;5013786;28;20235;-80
2023/12/27 09:24:10;;;;;;;3.23;1.83;;;;;;;3.09;100.00;101301.75;5013609;28;20230;-80
2023/12/27 09:26:37;;;;;;;8.03;2.20;;;;;;;3.16;100.00;101305.13;5010953;28;20211;-80
2023/12/27 09:29:04;;;;;;;5.53;1.73;;;;;;;3.20;100.00;101298.88;5015812;28;20226;-80
2023/12/27 09:31:30;;;;;;;6.10;1.80;;;;;;;3.23;100.00;101293.53;5014081;28;20275;-79
2023/12/27 09:33:59;;;;;;;6.27;2.03;;;;;;;3.28;100.00;101291.66;5016418;28;20898;-79
2023/12/27 09:36:27;;;;;;;5.57;2.00;;;;;;;3.31;100.00;101286.34;5003847;28;20214;-79
2023/12/27 09:38:55;;;;;;;7.53;2.13;;;;;;;3.37;100.00;101293.22;5011497;28;20226;-80
2023/12/27 09:41:21;;;;;;;6.43;1.60;;;;;;;3.41;100.00;101293.09;5014913;28;20222;-80
2023/12/27 09:43:52;;;;;;;6.47;1.80;;;;;;;3.45;100.00;101281.59;5013030;28;20287;-79
2023/12/27 09:46:20;;;;;;;7.00;2.23;;;;;;;3.48;100.00;101284.16;5015009;28;20199;-79
2023/12/27 09:48:46;;;;;;;8.60;1.83;;;;;;;3.52;100.00;101273.56;5013742;28;20227;-79
2023/12/27 09:51:13;;;;;;;2.73;1.40;;;;;;;3.57;100.00;101276.97;5016792;28;20215;-79
2023/12/27 09:53:42;;;;;;;3.30;1.50;;;;;;;3.64;100.00;101275.88;5010689;28;20220;-80
2023/12/27 09:56:09;;;;;;;6.37;1.70;;;;;;;3.65;100.00;101278.47;5011505;28;20271;-79
2023/12/27 09:58:37;;;;;;;3.63;2.00;;;;;;;3.69;100.00;101272.25;5011737;28;20322;-80
2023/12/27 10:01:06;;;;;;;3.30;1.40;;;;;;;3.77;100.00;101266.75;5010391;28;20207;-80
2023/12/27 10:03:35;;;;;;;7.03;1.40;;;;;;;3.81;100.00;101261.38;5012986;28;20285;-80
2023/12/27 10:06:15;;;;;;;4.87;1.53;;;;;;;3.88;100.00;101262.09;5011040;28;20249;-81
2023/12/27 10:08:43;;;;;;;7.00;1.37;;;;;;;3.95;100.00;101250.47;5010757;28;20221;-80
2023/12/27 10:11:11;;;;;;;6.40;1.17;;;;;;;4.00;100.00;101245.09;5013955;28;20232;-81
2023/12/27 10:13:39;;;;;;;3.73;1.20;;;;;;;4.06;100.00;101245.81;5014007;28;20251;-81
2023/12/27 10:16:07;;;;;;;5.10;1.37;;;;;;;4.10;100.00;101230.78;5012669;28;20199;-80
2023/12/27 10:18:33;;;;;;;4.77;1.47;;;;;;;4.18;100.00;101234.03;5004874;28;20199;-80
2023/12/27 10:21:00;;;;;;;4.53;1.50;;;;;;;4.23;100.00;101232.16;5017594;28;20198;-80
2023/12/27 10:23:27;;;;;;;4.90;1.10;;;;;;;4.27;100.00;101217.97;5013603;28;20242;-80
2023/12/27 10:25:55;;;;;;;4.87;1.50;;;;;;;4.33;100.00;101228.34;5011606;28;20290;-81
2023/12/27 10:28:23;;;;;;;5.43;1.67;;;;;;;4.41;100.00;101220.22;5010107;28;20548;-81
2023/12/27 10:30:51;;;;;;;3.30;1.30;;;;;;;4.43;100.00;101223.69;5016352;28;20211;-80
2023/12/27 10:33:19;;;;;;;8.53;2.17;;;;;;;4.48;100.00;101216.47;5007249;28;20230;-81
2023/12/27 10:35:46;;;;;;;5.67;1.50;;;;;;;4.55;100.00;101220.69;5019726;28;20266;-81
2023/12/27 10:38:13;;;;;;;5.70;1.63;;;;;;;4.63;100.00;101217.81;5018123;28;20207;-79
2023/12/27 10:40:41;;;;;;;5.07;1.50;;;;;;;4.67;100.00;101219.44;5020943;28;20203;-80
2023/12/27 10:43:09;;;;;;;2.77;1.97;;;;;;;4.69;100.00;101228.16;5020727;28;20309;-80
2023/12/27 10:45:39;;;;;;;2.60;1.60;;;;;;;4.71;100.00;101229.84;5019501;28;20208;-79
2023/12/27 10:48:06;;;;;;;8.03;1.83;;;;;;;4.73;100.00;101220.13;5019497;28;20217;-80
2023/12/27 10:50:34;;;;;;;6.80;2.20;;;;;;;4.73;100.00;101212.22;5019733;28;20227;-80
2023/12/27 10:53:03;;;;;;;4.83;1.90;;;;;;;4.77;100.00;101208.56;5018246;28;20223;-80
2023/12/27 10:55:34;;;;;;;10.13;3.80;;;;;;;4.80;100.00;101208.50;5020252;28;20294;-81
2023/12/27 10:58:09;;;;;;;5.60;2.50;;;;;;;4.82;100.00;101195.25;5016168;28;20234;-79
2023/12/27 11:00:37;;;;;;;4.60;1.80;;;;;;;4.84;100.00;101196.91;5021137;28;20249;-81
2023/12/27 11:03:04;;;;;;;4.80;2.00;;;;;;;4.87;100.00;101186.25;5018612;28;20223;-80
2023/12/27 11:05:32;;;;;;;6.07;2.00;;;;;;;4.91;100.00;101183.53;5019814;28;20217;-81
2023/12/27 11:08:01;;;;;;;7.63;1.97;;;;;;;4.93;100.00;101186.97;5019187;28;20199;-79
2023/12/27 11:10:30;;;;;;;5.10;2.27;;;;;;;4.97;100.00;101178.94;5017738;28;20227;-80
2023/12/27 11:12:59;;;;;;;5.70;2.23;;;;;;;5.01;100.00;101174.41;5019764;28;20226;-80
2023/12/27 11:15:28;;;;;;;7.07;2.20;;;;;;;5.03;100.00;101172.56;5019575;28;20223;-80
2023/12/27 11:17:59;;;;;;;9.00;2.63;;;;;;;5.08;100.00;101162.72;5021201;28;20207;-81
2023/12/27 11:20:26;;;;;;;7.10;2.40;;;;;;;5.09;100.00;101152.13;5012600;28;20227;-79
2023/12/27 11:22:53;;;;;;;6.67;2.43;;;;;;;5.14;100.00;101157.25;5021976;28;20321;-79
2023/12/27 11:25:19;;;;;;;5.53;2.20;;;;;;;5.17;100.00;101139.53;5023409;28;20203;-80
2023/12/27 11:27:48;;;;;;;6.07;2.30;;;;;;;5.22;100.00;101142.88;5014784;28;20203;-79